Terminal Aerodrome Forecast
Issued by NWS

Home | Current Version | Previous Version | Text Only | Print | Product List | Glossary On
Versions: 1 2 3 4 5 6 7 8 9 10 11 12 13 14 15 16 17 18 19 20 21 22 23 24
000
FTUS41 KPBZ 260839 AAA
TAFZZV
TAF AMD
KZZV 260839Z 2609/2706 00000KT 3SM BR SCT001
      TEMPO 2609/2610 1SM BR VV001
     FM261000 00000KT 1/2SM FG VV001
      TEMPO 2610/2612 1/4SM FG
     FM261230 00000KT 1SM BR FEW001
     FM261330 13003KT 5SM BR FEW035
     FM261400 19005KT P6SM FEW050=

USA.gov is the U.S. government's official web portal to all federal, state and local government web resources and services.